sensor_id;sensor_type;location;lat;lon;timestamp;pressure;altitude;pressure_sealevel;temperature;humidity
33286;BME280;19656;50.096;20.014;2023-08-12T00:02:06;99625.50;;;18.03;66.65
33286;BME280;19656;50.096;20.014;2023-08-12T00:07:13;99628.09;;;17.98;66.82
33286;BME280;19656;50.096;20.014;2023-08-12T00:12:19;99626.21;;;17.92;66.96
33286;BME280;19656;50.096;20.014;2023-08-12T00:17:22;99622.17;;;17.91;66.92
33286;BME280;19656;50.096;20.014;2023-08-12T00:22:25;99612.28;;;17.89;67.01
33286;BME280;19656;50.096;20.014;2023-08-12T00:27:29;99613.73;;;17.85;66.93
33286;BME280;19656;50.096;20.014;2023-08-12T00:32:32;99610.21;;;17.77;67.00
33286;BME280;19656;50.096;20.014;2023-08-12T00:37:35;99606.29;;;17.68;67.19
33286;BME280;19656;50.096;20.014;2023-08-12T00:42:39;99604.40;;;17.58;67.27
33286;BME280;19656;50.096;20.014;2023-08-12T00:47:52;99607.14;;;17.51;67.60
33286;BME280;19656;50.096;20.014;2023-08-12T00:52:57;99596.76;;;17.42;68.00
33286;BME280;19656;50.096;20.014;2023-08-12T00:58:02;99599.55;;;17.34;68.14
33286;BME280;19656;50.096;20.014;2023-08-12T01:03:06;99598.18;;;17.29;68.43
33286;BME280;19656;50.096;20.014;2023-08-12T01:08:10;99594.28;;;17.28;68.52
33286;BME280;19656;50.096;20.014;2023-08-12T01:13:28;99594.32;;;17.28;68.44
33286;BME280;19656;50.096;20.014;2023-08-12T01:18:33;99590.34;;;17.25;68.69
33286;BME280;19656;50.096;20.014;2023-08-12T01:23:36;99585.13;;;17.21;68.70
33286;BME280;19656;50.096;20.014;2023-08-12T01:28:41;99588.89;;;17.15;68.87
33286;BME280;19656;50.096;20.014;2023-08-12T01:33:55;99595.05;;;17.08;69.08
33286;BME280;19656;50.096;20.014;2023-08-12T01:39:01;99596.77;;;16.99;69.33
33286;BME280;19656;50.096;20.014;2023-08-12T01:44:06;99596.60;;;16.90;69.49
33286;BME280;19656;50.096;20.014;2023-08-12T01:49:10;99595.10;;;16.87;69.73
33286;BME280;19656;50.096;20.014;2023-08-12T01:54:13;99599.03;;;16.89;69.81
33286;BME280;19656;50.096;20.014;2023-08-12T01:59:17;99602.40;;;16.94;69.79
33286;BME280;19656;50.096;20.014;2023-08-12T02:04:20;99595.59;;;16.89;69.72
33286;BME280;19656;50.096;20.014;2023-08-12T02:09:24;99594.98;;;16.86;69.60
33286;BME280;19656;50.096;20.014;2023-08-12T02:14:27;99595.66;;;16.77;69.65
33286;BME280;19656;50.096;20.014;2023-08-12T02:19:31;99601.61;;;16.69;69.73
33286;BME280;19656;50.096;20.014;2023-08-12T02:24:35;99603.11;;;16.62;69.99
33286;BME280;19656;50.096;20.014;2023-08-12T02:29:38;99605.53;;;16.56;70.26
33286;BME280;19656;50.096;20.014;2023-08-12T02:34:42;99608.73;;;16.52;70.33
33286;BME280;19656;50.096;20.014;2023-08-12T02:39:45;99608.84;;;16.50;70.10
33286;BME280;19656;50.096;20.014;2023-08-12T02:44:48;99615.92;;;16.49;70.00
33286;BME280;19656;50.096;20.014;2023-08-12T02:49:51;99611.61;;;16.47;69.95
33286;BME280;19656;50.096;20.014;2023-08-12T02:54:55;99615.21;;;16.44;69.78
33286;BME280;19656;50.096;20.014;2023-08-12T03:00:10;99621.16;;;16.42;69.74
33286;BME280;19656;50.096;20.014;2023-08-12T03:05:13;99624.80;;;16.41;69.20
33286;BME280;19656;50.096;20.014;2023-08-12T03:10:17;99627.88;;;16.43;68.36
33286;BME280;19656;50.096;20.014;2023-08-12T03:15:21;99625.09;;;16.44;67.87
33286;BME280;19656;50.096;20.014;2023-08-12T03:20:25;99631.58;;;16.43;68.35
33286;BME280;19656;50.096;20.014;2023-08-12T03:25:28;99631.98;;;16.36;68.66
33286;BME280;19656;50.096;20.014;2023-08-12T03:30:32;99630.38;;;16.36;67.72
33286;BME280;19656;50.096;20.014;2023-08-12T03:35:35;99633.23;;;16.43;67.23
33286;BME280;19656;50.096;20.014;2023-08-12T03:40:39;99637.58;;;16.47;67.41
33286;BME280;19656;50.096;20.014;2023-08-12T03:45:44;99638.41;;;16.48;67.10
33286;BME280;19656;50.096;20.014;2023-08-12T03:50:50;99633.36;;;16.46;67.27
33286;BME280;19656;50.096;20.014;2023-08-12T03:55:53;99638.27;;;16.45;67.64
33286;BME280;19656;50.096;20.014;2023-08-12T04:00:57;99639.08;;;16.39;68.13
33286;BME280;19656;50.096;20.014;2023-08-12T04:06:00;99637.86;;;16.34;67.71
33286;BME280;19656;50.096;20.014;2023-08-12T04:11:03;99638.68;;;16.30;67.54
33286;BME280;19656;50.096;20.014;2023-08-12T04:16:07;99639.91;;;16.25;66.99
33286;BME280;19656;50.096;20.014;2023-08-12T04:21:10;99634.63;;;16.29;67.36
33286;BME280;19656;50.096;20.014;2023-08-12T04:26:13;99635.59;;;16.38;67.32
33286;BME280;19656;50.096;20.014;2023-08-12T04:31:20;99636.40;;;16.41;66.81
33286;BME280;19656;50.096;20.014;2023-08-12T04:36:45;99641.27;;;16.45;67.08
33286;BME280;19656;50.096;20.014;2023-08-12T04:41:48;99635.84;;;16.44;67.31
33286;BME280;19656;50.096;20.014;2023-08-12T04:46:52;99634.70;;;16.40;67.54
33286;BME280;19656;50.096;20.014;2023-08-12T04:51:56;99642.08;;;16.44;67.77
33286;BME280;19656;50.096;20.014;2023-08-12T04:56:59;99645.85;;;16.51;67.66
33286;BME280;19656;50.096;20.014;2023-08-12T05:02:02;99645.48;;;16.56;67.48
33286;BME280;19656;50.096;20.014;2023-08-12T05:07:08;99645.98;;;16.63;67.61
33286;BME280;19656;50.096;20.014;2023-08-12T05:12:12;99645.57;;;16.76;67.50
33286;BME280;19656;50.096;20.014;2023-08-12T05:17:16;99649.75;;;16.91;67.35
33286;BME280;19656;50.096;20.014;2023-08-12T05:22:20;99650.45;;;17.05;66.75
33286;BME280;19656;50.096;20.014;2023-08-12T05:27:23;99651.27;;;17.27;66.73
33286;BME280;19656;50.096;20.014;2023-08-12T05:32:26;99644.52;;;17.45;66.12
33286;BME280;19656;50.096;20.014;2023-08-12T05:37:30;99641.48;;;17.52;65.40
33286;BME280;19656;50.096;20.014;2023-08-12T05:42:33;99642.02;;;17.59;65.56
33286;BME280;19656;50.096;20.014;2023-08-12T05:47:37;99640.97;;;17.87;65.19
33286;BME280;19656;50.096;20.014;2023-08-12T05:52:40;99640.42;;;17.94;64.57
33286;BME280;19656;50.096;20.014;2023-08-12T05:57:43;99640.35;;;17.95;64.23
33286;BME280;19656;50.096;20.014;2023-08-12T06:02:46;99631.81;;;17.94;64.22
33286;BME280;19656;50.096;20.014;2023-08-12T06:07:54;99633.14;;;17.95;64.27
33286;BME280;19656;50.096;20.014;2023-08-12T06:12:57;99626.59;;;18.01;64.39
33286;BME280;19656;50.096;20.014;2023-08-12T06:18:01;99622.86;;;18.08;64.39
33286;BME280;19656;50.096;20.014;2023-08-12T06:23:04;99624.66;;;18.23;64.53
33286;BME280;19656;50.096;20.014;2023-08-12T06:28:07;99623.52;;;18.39;64.08
33286;BME280;19656;50.096;20.014;2023-08-12T06:33:12;99624.14;;;18.57;64.14
33286;BME280;19656;50.096;20.014;2023-08-12T06:38:15;99620.95;;;18.71;63.73
33286;BME280;19656;50.096;20.014;2023-08-12T06:43:18;99622.48;;;18.83;63.22
33286;BME280;19656;50.096;20.014;2023-08-12T06:48:21;99617.38;;;18.90;62.87
33286;BME280;19656;50.096;20.014;2023-08-12T06:53:26;99619.41;;;19.02;63.04
33286;BME280;19656;50.096;20.014;2023-08-12T06:58:29;99615.66;;;19.17;62.90
33286;BME280;19656;50.096;20.014;2023-08-12T07:03:32;99616.06;;;19.33;62.78
33286;BME280;19656;50.096;20.014;2023-08-12T07:08:35;99613.30;;;19.48;62.51
33286;BME280;19656;50.096;20.014;2023-08-12T07:13:38;99611.23;;;19.65;62.42
33286;BME280;19656;50.096;20.014;2023-08-12T07:18:42;99613.02;;;19.81;61.83
33286;BME280;19656;50.096;20.014;2023-08-12T07:23:48;99612.73;;;19.94;61.88
33286;BME280;19656;50.096;20.014;2023-08-12T07:29:06;99614.75;;;20.13;61.53
33286;BME280;19656;50.096;20.014;2023-08-12T07:34:09;99608.65;;;20.29;61.24
33286;BME280;19656;50.096;20.014;2023-08-12T07:39:16;99610.73;;;20.44;60.65
33286;BME280;19656;50.096;20.014;2023-08-12T07:44:19;99605.38;;;20.58;60.07
33286;BME280;19656;50.096;20.014;2023-08-12T07:49:22;99602.95;;;20.68;59.26
33286;BME280;19656;50.096;20.014;2023-08-12T07:54:25;99604.86;;;20.80;58.88
33286;BME280;19656;50.096;20.014;2023-08-12T07:59:29;99596.72;;;20.92;58.83
33286;BME280;19656;50.096;20.014;2023-08-12T08:04:33;99590.09;;;21.02;58.30
33286;BME280;19656;50.096;20.014;2023-08-12T08:09:36;99591.05;;;21.08;57.20
33286;BME280;19656;50.096;20.014;2023-08-12T08:14:40;99588.57;;;21.13;56.93
33286;BME280;19656;50.096;20.014;2023-08-12T08:19:43;99588.18;;;21.22;56.35
33286;BME280;19656;50.096;20.014;2023-08-12T08:24:46;99586.30;;;21.33;56.03
33286;BME280;19656;50.096;20.014;2023-08-12T08:29:52;99578.88;;;21.47;56.14
33286;BME280;19656;50.096;20.014;2023-08-12T08:34:55;99574.46;;;21.59;55.95
33286;BME280;19656;50.096;20.014;2023-08-12T08:40:00;99564.70;;;21.74;56.19
33286;BME280;19656;50.096;20.014;2023-08-12T08:45:22;99569.68;;;21.87;55.73
33286;BME280;19656;50.096;20.014;2023-08-12T08:50:31;99564.20;;;21.95;54.26
33286;BME280;19656;50.096;20.014;2023-08-12T08:55:34;99562.10;;;22.09;53.33
33286;BME280;19656;50.096;20.014;2023-08-12T09:00:38;99562.33;;;22.24;51.95
33286;BME280;19656;50.096;20.014;2023-08-12T09:05:42;99554.70;;;22.37;51.91
33286;BME280;19656;50.096;20.014;2023-08-12T09:10:47;99553.52;;;22.45;50.71
33286;BME280;19656;50.096;20.014;2023-08-12T09:15:51;99545.33;;;22.56;50.40
33286;BME280;19656;50.096;20.014;2023-08-12T09:20:54;99541.48;;;22.70;50.11
33286;BME280;19656;50.096;20.014;2023-08-12T09:25:58;99537.54;;;22.82;49.89
33286;BME280;19656;50.096;20.014;2023-08-12T09:31:01;99540.40;;;23.03;48.48
33286;BME280;19656;50.096;20.014;2023-08-12T09:36:05;99538.92;;;23.15;48.48
33286;BME280;19656;50.096;20.014;2023-08-12T09:41:08;99535.23;;;23.28;48.89
33286;BME280;19656;50.096;20.014;2023-08-12T09:46:12;99532.98;;;23.45;47.58
33286;BME280;19656;50.096;20.014;2023-08-12T09:51:19;99530.59;;;23.57;46.28
33286;BME280;19656;50.096;20.014;2023-08-12T09:56:26;99522.84;;;23.72;46.53
33286;BME280;19656;50.096;20.014;2023-08-12T10:01:33;99518.20;;;23.86;46.21
33286;BME280;19656;50.096;20.014;2023-08-12T10:06:37;99511.96;;;23.95;45.66
33286;BME280;19656;50.096;20.014;2023-08-12T10:11:42;99507.09;;;24.08;45.03
33286;BME280;19656;50.096;20.014;2023-08-12T10:16:46;99504.68;;;24.30;43.65
33286;BME280;19656;50.096;20.014;2023-08-12T10:21:55;99503.41;;;24.54;43.45
33286;BME280;19656;50.096;20.014;2023-08-12T10:27:02;99497.42;;;24.75;42.60
33286;BME280;19656;50.096;20.014;2023-08-12T10:32:06;99491.84;;;24.92;42.16
33286;BME280;19656;50.096;20.014;2023-08-12T10:37:10;99489.49;;;25.12;42.82
33286;BME280;19656;50.096;20.014;2023-08-12T10:42:14;99484.03;;;25.31;42.19
33286;BME280;19656;50.096;20.014;2023-08-12T10:47:40;99477.32;;;25.48;41.48
33286;BME280;19656;50.096;20.014;2023-08-12T10:52:44;99470.98;;;25.66;41.83
33286;BME280;19656;50.096;20.014;2023-08-12T10:57:48;99457.90;;;25.84;41.20
33286;BME280;19656;50.096;20.014;2023-08-12T11:02:55;99453.23;;;26.00;41.67
33286;BME280;19656;50.096;20.014;2023-08-12T11:08:00;99450.04;;;26.15;41.61
33286;BME280;19656;50.096;20.014;2023-08-12T11:13:08;99444.10;;;26.27;41.39
33286;BME280;19656;50.096;20.014;2023-08-12T11:18:16;99444.70;;;26.37;41.40
33286;BME280;19656;50.096;20.014;2023-08-12T11:23:20;99442.54;;;26.53;41.82
33286;BME280;19656;50.096;20.014;2023-08-12T11:28:24;99438.12;;;26.70;40.83
33286;BME280;19656;50.096;20.014;2023-08-12T11:33:43;99438.66;;;26.76;40.84
33286;BME280;19656;50.096;20.014;2023-08-12T11:38:47;99434.05;;;26.97;40.47
33286;BME280;19656;50.096;20.014;2023-08-12T11:43:50;99434.36;;;27.14;39.37
33286;BME280;19656;50.096;20.014;2023-08-12T11:48:53;99421.16;;;27.32;38.30
33286;BME280;19656;50.096;20.014;2023-08-12T11:53:56;99420.88;;;27.57;38.01
33286;BME280;19656;50.096;20.014;2023-08-12T11:59:00;99407.95;;;27.71;38.28
33286;BME280;19656;50.096;20.014;2023-08-12T12:04:03;99401.91;;;27.80;38.22
33286;BME280;19656;50.096;20.014;2023-08-12T12:09:08;99398.11;;;27.99;37.48
33286;BME280;19656;50.096;20.014;2023-08-12T12:14:13;99396.16;;;28.20;37.60
33286;BME280;19656;50.096;20.014;2023-08-12T12:19:17;99396.25;;;28.43;36.19
33286;BME280;19656;50.096;20.014;2023-08-12T12:24:21;99393.01;;;28.67;35.53
33286;BME280;19656;50.096;20.014;2023-08-12T12:29:24;99381.17;;;28.89;35.92
33286;BME280;19656;50.096;20.014;2023-08-12T12:34:27;99377.23;;;29.14;35.09
33286;BME280;19656;50.096;20.014;2023-08-12T12:39:30;99373.38;;;29.23;35.98
33286;BME280;19656;50.096;20.014;2023-08-12T12:44:34;99374.42;;;29.36;34.09
33286;BME280;19656;50.096;20.014;2023-08-12T12:49:37;99369.52;;;29.57;33.06
33286;BME280;19656;50.096;20.014;2023-08-12T12:54:40;99361.94;;;29.80;33.41
33286;BME280;19656;50.096;20.014;2023-08-12T12:59:43;99355.40;;;30.12;33.47
33286;BME280;19656;50.096;20.014;2023-08-12T13:04:46;99347.98;;;30.35;33.36
33286;BME280;19656;50.096;20.014;2023-08-12T13:09:50;99347.93;;;30.45;33.19
33286;BME280;19656;50.096;20.014;2023-08-12T13:14:54;99343.00;;;30.56;32.45
33286;BME280;19656;50.096;20.014;2023-08-12T13:19:57;99341.39;;;30.70;32.04
33286;BME280;19656;50.096;20.014;2023-08-12T13:25:01;99341.31;;;30.90;32.38
33286;BME280;19656;50.096;20.014;2023-08-12T13:30:06;99333.89;;;31.16;31.83
33286;BME280;19656;50.096;20.014;2023-08-12T13:35:09;99330.90;;;31.42;31.39
33286;BME280;19656;50.096;20.014;2023-08-12T13:40:14;99322.91;;;31.65;31.22
33286;BME280;19656;50.096;20.014;2023-08-12T13:45:18;99317.96;;;31.90;31.04
33286;BME280;19656;50.096;20.014;2023-08-12T13:50:21;99315.16;;;31.99;30.33
33286;BME280;19656;50.096;20.014;2023-08-12T13:55:25;99314.94;;;32.09;30.94
33286;BME280;19656;50.096;20.014;2023-08-12T14:00:29;99309.59;;;32.14;31.65
33286;BME280;19656;50.096;20.014;2023-08-12T14:05:32;99298.34;;;32.23;30.95
33286;BME280;19656;50.096;20.014;2023-08-12T14:10:35;99298.63;;;32.27;30.01
33286;BME280;19656;50.096;20.014;2023-08-12T14:15:38;99296.66;;;32.25;29.90
33286;BME280;19656;50.096;20.014;2023-08-12T14:20:42;99293.41;;;32.20;30.09
33286;BME280;19656;50.096;20.014;2023-08-12T14:25:45;99294.30;;;32.15;30.27
33286;BME280;19656;50.096;20.014;2023-08-12T14:30:48;99297.09;;;32.02;30.77
33286;BME280;19656;50.096;20.014;2023-08-12T14:36:00;99292.23;;;31.85;31.26
33286;BME280;19656;50.096;20.014;2023-08-12T14:41:03;99290.30;;;31.62;30.87
33286;BME280;19656;50.096;20.014;2023-08-12T14:46:07;99276.09;;;31.31;31.87
33286;BME280;19656;50.096;20.014;2023-08-12T14:51:10;99266.67;;;30.89;32.95
33286;BME280;19656;50.096;20.014;2023-08-12T14:56:14;99271.81;;;30.47;33.02
33286;BME280;19656;50.096;20.014;2023-08-12T15:01:17;99270.17;;;30.10;33.16
33286;BME280;19656;50.096;20.014;2023-08-12T15:06:21;99265.68;;;29.77;32.83
33286;BME280;19656;50.096;20.014;2023-08-12T15:11:25;99259.69;;;29.48;33.37
33286;BME280;19656;50.096;20.014;2023-08-12T15:16:28;99253.30;;;29.25;33.71
33286;BME280;19656;50.096;20.014;2023-08-12T15:21:31;99249.36;;;29.05;34.36
33286;BME280;19656;50.096;20.014;2023-08-12T15:26:34;99247.20;;;28.89;34.45
33286;BME280;19656;50.096;20.014;2023-08-12T15:31:41;99240.42;;;28.72;34.87
33286;BME280;19656;50.096;20.014;2023-08-12T15:36:51;99234.41;;;28.58;35.47
33286;BME280;19656;50.096;20.014;2023-08-12T15:41:54;99232.81;;;28.45;36.82
33286;BME280;19656;50.096;20.014;2023-08-12T15:46:57;99230.02;;;28.35;36.38
33286;BME280;19656;50.096;20.014;2023-08-12T15:52:01;99222.77;;;28.24;36.53
33286;BME280;19656;50.096;20.014;2023-08-12T15:57:04;99220.80;;;28.15;37.28
33286;BME280;19656;50.096;20.014;2023-08-12T16:02:08;99221.85;;;28.07;37.52
33286;BME280;19656;50.096;20.014;2023-08-12T16:07:12;99215.22;;;28.00;37.00
33286;BME280;19656;50.096;20.014;2023-08-12T16:12:15;99215.95;;;27.88;37.49
33286;BME280;19656;50.096;20.014;2023-08-12T16:17:22;99214.90;;;27.70;37.83
33286;BME280;19656;50.096;20.014;2023-08-12T16:22:25;99214.16;;;27.66;37.94
33286;BME280;19656;50.096;20.014;2023-08-12T16:27:28;99216.34;;;27.63;37.96
33286;BME280;19656;50.096;20.014;2023-08-12T16:32:31;99211.59;;;27.57;38.14
33286;BME280;19656;50.096;20.014;2023-08-12T16:37:35;99215.68;;;27.52;38.52
33286;BME280;19656;50.096;20.014;2023-08-12T16:42:38;99213.48;;;27.45;38.42
33286;BME280;19656;50.096;20.014;2023-08-12T16:47:41;99216.69;;;27.36;38.76
33286;BME280;19656;50.096;20.014;2023-08-12T16:52:44;99215.05;;;27.24;39.51
33286;BME280;19656;50.096;20.014;2023-08-12T16:57:47;99217.55;;;27.09;40.05
33286;BME280;19656;50.096;20.014;2023-08-12T17:02:51;99219.30;;;27.03;40.39
33286;BME280;19656;50.096;20.014;2023-08-12T17:07:54;99223.70;;;26.92;40.67
33286;BME280;19656;50.096;20.014;2023-08-12T17:12:59;99222.05;;;26.82;40.94
33286;BME280;19656;50.096;20.014;2023-08-12T17:18:03;99220.16;;;26.74;41.22
33286;BME280;19656;50.096;20.014;2023-08-12T17:23:06;99221.60;;;26.67;41.77
33286;BME280;19656;50.096;20.014;2023-08-12T17:28:09;99223.02;;;26.54;42.66
33286;BME280;19656;50.096;20.014;2023-08-12T17:33:13;99222.25;;;26.39;43.17
33286;BME280;19656;50.096;20.014;2023-08-12T17:38:16;99227.20;;;26.29;44.47
33286;BME280;19656;50.096;20.014;2023-08-12T17:43:19;99226.70;;;26.14;45.44
33286;BME280;19656;50.096;20.014;2023-08-12T17:48:22;99223.12;;;26.05;46.45
33286;BME280;19656;50.096;20.014;2023-08-12T17:53:25;99223.05;;;25.89;46.60
33286;BME280;19656;50.096;20.014;2023-08-12T17:58:29;99225.43;;;25.73;47.18
33286;BME280;19656;50.096;20.014;2023-08-12T18:03:32;99224.48;;;25.57;47.82
33286;BME280;19656;50.096;20.014;2023-08-12T18:08:37;99229.41;;;25.41;48.49
33286;BME280;19656;50.096;20.014;2023-08-12T18:13:40;99237.08;;;25.28;48.78
33286;BME280;19656;50.096;20.014;2023-08-12T18:18:44;99240.09;;;25.13;49.67
33286;BME280;19656;50.096;20.014;2023-08-12T18:23:47;99241.62;;;24.99;50.44
33286;BME280;19656;50.096;20.014;2023-08-12T18:29:02;99247.80;;;24.83;50.67
33286;BME280;19656;50.096;20.014;2023-08-12T18:34:05;99252.84;;;24.68;51.24
33286;BME280;19656;50.096;20.014;2023-08-12T18:39:09;99255.21;;;24.54;51.89
33286;BME280;19656;50.096;20.014;2023-08-12T18:44:20;99257.92;;;24.45;52.42
33286;BME280;19656;50.096;20.014;2023-08-12T18:49:24;99259.41;;;24.33;52.52
33286;BME280;19656;50.096;20.014;2023-08-12T18:54:27;99254.41;;;24.22;52.78
33286;BME280;19656;50.096;20.014;2023-08-12T18:59:30;99259.25;;;24.10;53.51
33286;BME280;19656;50.096;20.014;2023-08-12T19:04:33;99265.77;;;23.94;53.98
33286;BME280;19656;50.096;20.014;2023-08-12T19:09:36;99267.88;;;23.83;54.28
33286;BME280;19656;50.096;20.014;2023-08-12T19:14:40;99271.88;;;23.72;55.03
33286;BME280;19656;50.096;20.014;2023-08-12T19:19:44;99272.84;;;23.59;55.55
33286;BME280;19656;50.096;20.014;2023-08-12T19:24:47;99275.75;;;23.47;56.07
33286;BME280;19656;50.096;20.014;2023-08-12T19:29:51;99275.54;;;23.36;56.64
33286;BME280;19656;50.096;20.014;2023-08-12T19:34:54;99274.95;;;23.28;57.04
33286;BME280;19656;50.096;20.014;2023-08-12T19:39:57;99279.40;;;23.16;57.60
33286;BME280;19656;50.096;20.014;2023-08-12T19:45:02;99281.26;;;23.07;58.11
33286;BME280;19656;50.096;20.014;2023-08-12T19:50:10;99276.44;;;22.95;58.46
33286;BME280;19656;50.096;20.014;2023-08-12T19:55:13;99276.84;;;22.93;59.06
33286;BME280;19656;50.096;20.014;2023-08-12T20:00:21;99274.88;;;22.83;59.16
33286;BME280;19656;50.096;20.014;2023-08-12T20:05:24;99285.95;;;22.69;59.57
33286;BME280;19656;50.096;20.014;2023-08-12T20:10:30;99290.50;;;22.56;60.02
33286;BME280;19656;50.096;20.014;2023-08-12T20:15:34;99288.08;;;22.43;60.78
33286;BME280;19656;50.096;20.014;2023-08-12T20:20:37;99290.31;;;22.31;61.15
33286;BME280;19656;50.096;20.014;2023-08-12T20:25:44;99295.59;;;22.20;61.75
33286;BME280;19656;50.096;20.014;2023-08-12T20:30:54;99295.13;;;22.07;62.34
33286;BME280;19656;50.096;20.014;2023-08-12T20:35:58;99291.14;;;21.95;62.87
33286;BME280;19656;50.096;20.014;2023-08-12T20:41:01;99289.92;;;21.86;63.13
33286;BME280;19656;50.096;20.014;2023-08-12T20:46:05;99290.83;;;21.84;63.41
33286;BME280;19656;50.096;20.014;2023-08-12T20:51:08;99299.71;;;21.82;63.57
33286;BME280;19656;50.096;20.014;2023-08-12T20:56:11;99305.63;;;21.80;63.75
33286;BME280;19656;50.096;20.014;2023-08-12T21:01:16;99306.44;;;21.74;63.77
33286;BME280;19656;50.096;20.014;2023-08-12T21:06:19;99305.86;;;21.64;63.66
33286;BME280;19656;50.096;20.014;2023-08-12T21:11:22;99304.56;;;21.52;64.00
33286;BME280;19656;50.096;20.014;2023-08-12T21:16:26;99303.98;;;21.41;64.04
33286;BME280;19656;50.096;20.014;2023-08-12T21:21:29;99305.36;;;21.30;64.28
33286;BME280;19656;50.096;20.014;2023-08-12T21:26:33;99303.70;;;21.18;64.57
33286;BME280;19656;50.096;20.014;2023-08-12T21:31:36;99299.30;;;21.06;65.06
33286;BME280;19656;50.096;20.014;2023-08-12T21:36:39;99297.15;;;20.97;65.39
33286;BME280;19656;50.096;20.014;2023-08-12T21:41:43;99294.27;;;20.89;65.74
33286;BME280;19656;50.096;20.014;2023-08-12T21:46:46;99298.69;;;20.89;65.74
33286;BME280;19656;50.096;20.014;2023-08-12T21:51:49;99307.61;;;20.88;66.02
33286;BME280;19656;50.096;20.014;2023-08-12T21:56:54;99311.61;;;20.84;65.99
33286;BME280;19656;50.096;20.014;2023-08-12T22:02:00;99303.03;;;20.77;66.12
33286;BME280;19656;50.096;20.014;2023-08-12T22:07:04;99296.39;;;20.70;66.32
33286;BME280;19656;50.096;20.014;2023-08-12T22:12:08;99289.42;;;20.64;66.46
33286;BME280;19656;50.096;20.014;2023-08-12T22:17:11;99276.16;;;20.56;66.74
33286;BME280;19656;50.096;20.014;2023-08-12T22:22:16;99273.92;;;20.48;66.77
33286;BME280;19656;50.096;20.014;2023-08-12T22:27:22;99266.35;;;20.39;67.00
33286;BME280;19656;50.096;20.014;2023-08-12T22:32:25;99267.00;;;20.34;67.31
33286;BME280;19656;50.096;20.014;2023-08-12T22:37:28;99267.50;;;20.32;67.24
33286;BME280;19656;50.096;20.014;2023-08-12T22:42:32;99261.08;;;20.30;67.38
33286;BME280;19656;50.096;20.014;2023-08-12T22:47:35;99265.14;;;20.25;67.25
33286;BME280;19656;50.096;20.014;2023-08-12T22:52:40;99260.59;;;20.17;67.14
33286;BME280;19656;50.096;20.014;2023-08-12T22:57:43;99253.19;;;20.11;67.24
33286;BME280;19656;50.096;20.014;2023-08-12T23:02:46;99247.33;;;20.03;67.54
33286;BME280;19656;50.096;20.014;2023-08-12T23:07:52;99243.83;;;19.93;67.52
33286;BME280;19656;50.096;20.014;2023-08-12T23:12:55;99246.00;;;19.81;67.96
33286;BME280;19656;50.096;20.014;2023-08-12T23:17:58;99248.91;;;19.76;68.09
33286;BME280;19656;50.096;20.014;2023-08-12T23:23:01;99252.04;;;19.73;68.01
33286;BME280;19656;50.096;20.014;2023-08-12T23:28:05;99252.89;;;19.72;68.08
33286;BME280;19656;50.096;20.014;2023-08-12T23:33:08;99250.02;;;19.68;68.00
33286;BME280;19656;50.096;20.014;2023-08-12T23:38:11;99252.41;;;19.62;68.12
33286;BME280;19656;50.096;20.014;2023-08-12T23:43:14;99254.16;;;19.56;68.12
33286;BME280;19656;50.096;20.014;2023-08-12T23:48:17;99248.02;;;19.51;68.12
33286;BME280;19656;50.096;20.014;2023-08-12T23:53:20;99253.27;;;19.43;68.36
33286;BME280;19656;50.096;20.014;2023-08-12T23:58:24;99247.19;;;19.35;68.50
